Time;durP1;ratioP1;P1;durP2;ratioP2;P2;SDS_P1;SDS_P2;PMS_P1;PMS_P2;Temp;Humidity;BMP_temperature;BMP_pressure;BME280_temperature;BME280_humidity;BME280_pressure;Samples;Min_cycle;Max_cycle;Signal;HPM_P1;HPM_P2
2024/01/21 00:01:32;;;;;;;1.40;1.30;;;;;;;;;;5018298;28;20061;-24
2024/01/21 00:03:58;;;;;;;1.20;1.10;;;;;;;;;;5018190;28;20054;-24
2024/01/21 00:06:24;;;;;;;2.22;2.13;;;;;;;;;;5018244;28;20171;-24
2024/01/21 00:08:50;;;;;;;1.50;1.40;;;;;;;;;;5018200;28;20133;-24
2024/01/21 00:11:17;;;;;;;1.85;1.75;;;;;;;;;;5018364;28;20353;-23
2024/01/21 00:13:43;;;;;;;1.70;1.60;;;;;;;;;;5017997;28;20021;-25
2024/01/21 00:16:09;;;;;;;1.52;1.42;;;;;;;;;;5018346;28;20018;-24
2024/01/21 00:18:35;;;;;;;1.60;1.50;;;;;;;;;;5018136;28;20030;-25
2024/01/21 00:21:01;;;;;;;1.50;1.40;;;;;;;;;;5018312;28;20037;-24
2024/01/21 00:23:27;;;;;;;1.15;1.15;;;;;;;;;;5018137;28;20030;-24
2024/01/21 00:25:53;;;;;;;1.50;1.40;;;;;;;;;;5017902;28;20034;-23
2024/01/21 00:28:20;;;;;;;1.67;1.58;;;;;;;;;;5017847;28;20030;-23
2024/01/21 00:30:46;;;;;;;1.63;1.52;;;;;;;;;;5017750;28;20033;-23
2024/01/21 00:33:12;;;;;;;1.55;1.45;;;;;;;;;;5017710;28;20458;-25
2024/01/21 00:35:38;;;;;;;1.80;1.70;;;;;;;;;;5017664;28;20037;-25
2024/01/21 00:38:04;;;;;;;1.55;1.00;;;;;;;;;;5017963;28;20026;-23
2024/01/21 00:40:30;;;;;;;1.67;1.58;;;;;;;;;;5017861;28;20026;-24
2024/01/21 00:42:59;;;;;;;1.98;1.77;;;;;;;;;;5017679;28;20025;-24
2024/01/21 00:45:25;;;;;;;1.80;1.70;;;;;;;;;;5017500;28;20029;-25
2024/01/21 00:47:51;;;;;;;1.50;1.40;;;;;;;;;;5017767;28;20030;-24
2024/01/21 00:50:17;;;;;;;1.65;1.55;;;;;;;;;;5017375;28;20032;-24
2024/01/21 00:52:44;;;;;;;1.63;1.52;;;;;;;;;;5017314;28;20346;-22
2024/01/21 00:55:10;;;;;;;1.40;1.35;;;;;;;;;;5018146;28;20033;-23
2024/01/21 00:57:36;;;;;;;1.40;1.35;;;;;;;;;;5017258;28;20437;-24
2024/01/21 01:00:02;;;;;;;1.80;1.70;;;;;;;;;;5017286;28;20037;-23
2024/01/21 01:02:29;;;;;;;1.60;1.50;;;;;;;;;;5016296;28;20077;-25
2024/01/21 01:04:55;;;;;;;1.70;1.60;;;;;;;;;;5017033;28;20054;-25
2024/01/21 01:07:22;;;;;;;1.48;1.38;;;;;;;;;;5017383;28;20034;-24
2024/01/21 01:09:48;;;;;;;1.38;1.27;;;;;;;;;;5017034;28;20025;-25
2024/01/21 01:12:14;;;;;;;1.48;1.38;;;;;;;;;;5016978;28;20022;-25
2024/01/21 01:14:40;;;;;;;2.33;2.22;;;;;;;;;;5017027;28;20033;-24
2024/01/21 01:17:06;;;;;;;1.92;1.83;;;;;;;;;;5016934;28;20070;-24
2024/01/21 01:19:33;;;;;;;1.30;1.30;;;;;;;;;;5017127;28;20022;-24
2024/01/21 01:21:59;;;;;;;1.38;1.27;;;;;;;;;;5016811;28;20037;-25
2024/01/21 01:24:25;;;;;;;1.40;1.30;;;;;;;;;;5016832;28;20037;-23
2024/01/21 01:26:51;;;;;;;1.80;1.70;;;;;;;;;;5017030;28;20022;-24
2024/01/21 01:29:17;;;;;;;1.50;1.40;;;;;;;;;;5017001;28;20038;-23
2024/01/21 01:31:43;;;;;;;1.98;1.88;;;;;;;;;;5016602;28;20041;-25
2024/01/21 01:34:11;;;;;;;1.63;1.52;;;;;;;;;;5016504;28;20449;-24
2024/01/21 01:36:37;;;;;;;1.55;1.45;;;;;;;;;;5016546;28;20038;-24
2024/01/21 01:39:03;;;;;;;1.40;1.30;;;;;;;;;;5016568;28;20092;-23
2024/01/21 01:41:29;;;;;;;1.70;1.60;;;;;;;;;;5016468;28;20113;-22
2024/01/21 01:43:55;;;;;;;1.67;1.58;;;;;;;;;;5016923;28;20057;-24
2024/01/21 01:46:22;;;;;;;1.30;1.20;;;;;;;;;;5016650;28;20044;-26
2024/01/21 01:48:49;;;;;;;2.13;2.03;;;;;;;;;;5016323;28;20034;-25
2024/01/21 01:51:15;;;;;;;1.33;1.23;;;;;;;;;;5016494;28;20041;-25
2024/01/21 01:53:41;;;;;;;1.40;1.30;;;;;;;;;;5016177;28;20472;-24
2024/01/21 01:56:08;;;;;;;1.40;1.30;;;;;;;;;;5016222;28;20461;-24
2024/01/21 01:58:35;;;;;;;1.60;1.50;;;;;;;;;;5016126;28;20041;-23
2024/01/21 02:01:01;;;;;;;1.70;1.60;;;;;;;;;;5016156;28;20040;-23
2024/01/21 02:03:28;;;;;;;1.70;1.60;;;;;;;;;;5015844;28;20376;-25
2024/01/21 02:05:54;;;;;;;1.95;1.85;;;;;;;;;;5016327;28;20077;-23
2024/01/21 02:08:20;;;;;;;1.48;1.38;;;;;;;;;;5016255;28;20405;-23
2024/01/21 02:10:47;;;;;;;1.48;1.38;;;;;;;;;;5016685;28;20022;-24
2024/01/21 02:13:13;;;;;;;1.52;1.42;;;;;;;;;;5014751;28;20037;-23
2024/01/21 02:15:40;;;;;;;1.90;1.80;;;;;;;;;;5016126;28;20022;-24
2024/01/21 02:18:06;;;;;;;1.40;1.30;;;;;;;;;;5016091;28;20030;-24
2024/01/21 02:20:33;;;;;;;1.20;1.10;;;;;;;;;;5016036;28;20349;-25
2024/01/21 02:22:59;;;;;;;1.05;1.05;;;;;;;;;;5015949;28;20070;-22
2024/01/21 02:25:26;;;;;;;1.63;1.52;;;;;;;;;;5015660;28;20105;-23
2024/01/21 02:27:52;;;;;;;1.67;1.58;;;;;;;;;;5015631;28;20026;-25
2024/01/21 02:30:18;;;;;;;1.70;1.60;;;;;;;;;;5015529;28;20026;-24
2024/01/21 02:32:44;;;;;;;1.45;1.35;;;;;;;;;;5015739;28;20026;-25
2024/01/21 02:35:10;;;;;;;1.60;1.50;;;;;;;;;;5015549;28;20026;-25
2024/01/21 02:37:36;;;;;;;1.52;1.42;;;;;;;;;;5015501;28;20132;-24
2024/01/21 02:40:02;;;;;;;1.20;1.20;;;;;;;;;;5015968;28;20021;-23
2024/01/21 02:42:29;;;;;;;1.50;1.40;;;;;;;;;;5015334;28;20409;-23
2024/01/21 02:44:55;;;;;;;1.42;1.33;;;;;;;;;;5015625;28;20026;-24
2024/01/21 02:47:24;;;;;;;1.30;1.20;;;;;;;;;;5015274;28;20041;-25
2024/01/21 02:49:50;;;;;;;1.48;1.27;;;;;;;;;;5015236;28;20018;-23
2024/01/21 02:52:16;;;;;;;1.38;1.30;;;;;;;;;;5015164;28;20054;-24
2024/01/21 02:54:42;;;;;;;1.73;1.63;;;;;;;;;;5015523;28;20358;-24
2024/01/21 02:57:08;;;;;;;1.50;1.40;;;;;;;;;;5015236;28;20025;-25
2024/01/21 02:59:35;;;;;;;1.38;1.27;;;;;;;;;;5015104;28;20025;-23
2024/01/21 03:02:01;;;;;;;1.27;1.27;;;;;;;;;;5015321;28;20095;-25
2024/01/21 03:04:27;;;;;;;1.80;1.70;;;;;;;;;;5014905;28;20127;-23
2024/01/21 03:06:53;;;;;;;1.17;1.15;;;;;;;;;;5015618;28;20033;-24
2024/01/21 03:09:19;;;;;;;1.67;1.58;;;;;;;;;;5015061;28;20026;-23
2024/01/21 03:11:45;;;;;;;1.67;1.50;;;;;;;;;;5014939;28;20057;-22
2024/01/21 03:14:11;;;;;;;1.63;1.52;;;;;;;;;;5014928;28;20029;-24
2024/01/21 03:16:37;;;;;;;1.50;1.40;;;;;;;;;;5015230;28;20052;-23
2024/01/21 03:19:04;;;;;;;1.17;1.08;;;;;;;;;;5015217;28;20049;-24
2024/01/21 03:21:30;;;;;;;1.83;1.73;;;;;;;;;;5014890;28;20026;-24
2024/01/21 03:23:56;;;;;;;1.48;1.38;;;;;;;;;;5014651;28;20040;-26
2024/01/21 03:26:22;;;;;;;1.60;1.50;;;;;;;;;;5015132;28;20037;-24
2024/01/21 03:28:48;;;;;;;1.75;1.65;;;;;;;;;;5015128;28;20125;-23
2024/01/21 03:31:14;;;;;;;1.60;1.50;;;;;;;;;;5015029;28;20146;-24
2024/01/21 03:33:40;;;;;;;1.45;1.35;;;;;;;;;;5014729;28;20026;-24
2024/01/21 03:36:06;;;;;;;1.75;1.42;;;;;;;;;;5015558;28;20105;-25
2024/01/21 03:38:33;;;;;;;2.80;1.65;;;;;;;;;;5015010;28;20053;-23
2024/01/21 03:40:59;;;;;;;1.45;1.38;;;;;;;;;;5014739;28;20037;-25
2024/01/21 03:43:26;;;;;;;1.20;1.20;;;;;;;;;;5014877;28;20040;-24
2024/01/21 03:45:52;;;;;;;2.00;1.60;;;;;;;;;;5014696;28;20022;-24
2024/01/21 03:48:18;;;;;;;1.55;1.15;;;;;;;;;;5014667;28;20046;-25
2024/01/21 03:50:44;;;;;;;3.30;1.50;;;;;;;;;;5014823;28;20025;-23
2024/01/21 03:53:10;;;;;;;1.60;1.50;;;;;;;;;;5014551;28;20033;-24
2024/01/21 03:55:36;;;;;;;1.42;1.33;;;;;;;;;;5014817;28;20036;-24
2024/01/21 03:58:03;;;;;;;1.30;1.30;;;;;;;;;;5014846;28;20340;-23
2024/01/21 04:00:29;;;;;;;1.42;1.33;;;;;;;;;;5014792;28;20404;-25
2024/01/21 04:02:55;;;;;;;2.47;1.40;;;;;;;;;;5014217;28;20029;-25
2024/01/21 04:05:21;;;;;;;1.85;1.75;;;;;;;;;;5014464;28;20042;-26
2024/01/21 04:07:47;;;;;;;1.50;1.40;;;;;;;;;;5014490;28;20022;-24
2024/01/21 04:10:13;;;;;;;1.40;1.30;;;;;;;;;;5014625;28;20053;-23
2024/01/21 04:12:39;;;;;;;1.58;1.48;;;;;;;;;;5014295;28;20054;-23
2024/01/21 04:15:05;;;;;;;1.52;1.42;;;;;;;;;;5014668;28;20018;-23
2024/01/21 04:17:32;;;;;;;1.95;1.85;;;;;;;;;;5014398;28;20018;-24
2024/01/21 04:19:58;;;;;;;1.60;1.50;;;;;;;;;;5014636;28;20084;-26
2024/01/21 04:22:24;;;;;;;1.42;1.33;;;;;;;;;;5014269;28;20116;-24
2024/01/21 04:24:50;;;;;;;1.42;1.20;;;;;;;;;;5014343;28;20025;-24
2024/01/21 04:27:16;;;;;;;1.38;1.35;;;;;;;;;;5014305;28;20026;-24
2024/01/21 04:29:42;;;;;;;1.15;1.05;;;;;;;;;;5015064;28;20132;-23
2024/01/21 04:32:08;;;;;;;1.52;1.42;;;;;;;;;;5014384;28;20057;-23
2024/01/21 04:34:35;;;;;;;1.50;1.40;;;;;;;;;;5014476;28;20030;-24
2024/01/21 04:37:01;;;;;;;1.00;1.00;;;;;;;;;;5016187;28;20026;-23
2024/01/21 04:39:27;;;;;;;1.52;1.42;;;;;;;;;;5017690;28;20096;-24
2024/01/21 04:41:53;;;;;;;1.25;1.25;;;;;;;;;;5017827;28;20084;-24
2024/01/21 04:44:20;;;;;;;1.65;1.55;;;;;;;;;;5018330;28;20061;-25
2024/01/21 04:46:46;;;;;;;1.80;1.55;;;;;;;;;;5017485;28;20038;-24
2024/01/21 04:49:12;;;;;;;0.98;0.98;;;;;;;;;;5017786;28;20025;-24
2024/01/21 04:51:38;;;;;;;1.50;1.40;;;;;;;;;;5017640;28;20030;-24
2024/01/21 04:54:04;;;;;;;1.13;1.13;;;;;;;;;;5017633;28;20052;-23
2024/01/21 04:56:30;;;;;;;1.40;1.38;;;;;;;;;;5017396;28;20030;-25
2024/01/21 04:58:56;;;;;;;1.42;1.33;;;;;;;;;;5017603;28;20033;-27
2024/01/21 05:01:23;;;;;;;1.30;1.20;;;;;;;;;;5017312;28;20029;-26
2024/01/21 05:03:50;;;;;;;1.33;1.30;;;;;;;;;;5017180;28;20050;-26
2024/01/21 05:06:16;;;;;;;1.60;1.50;;;;;;;;;;5017508;28;20480;-23
2024/01/21 05:08:43;;;;;;;1.30;1.20;;;;;;;;;;5017443;28;20365;-24
2024/01/21 05:11:09;;;;;;;1.48;1.38;;;;;;;;;;5017046;28;20100;-24
2024/01/21 05:13:35;;;;;;;1.20;1.20;;;;;;;;;;5016994;28;20442;-23
2024/01/21 05:16:01;;;;;;;1.60;1.50;;;;;;;;;;5017033;28;20022;-23
2024/01/21 05:18:27;;;;;;;1.40;1.30;;;;;;;;;;5016967;28;20460;-23
2024/01/21 05:20:53;;;;;;;1.45;1.35;;;;;;;;;;5017215;28;20408;-23
2024/01/21 05:23:20;;;;;;;1.20;1.20;;;;;;;;;;5016790;28;20030;-24
2024/01/21 05:25:50;;;;;;;1.42;1.33;;;;;;;;;;5016841;28;20041;-26
2024/01/21 05:28:16;;;;;;;1.00;1.00;;;;;;;;;;5017029;28;20512;-25
2024/01/21 05:30:42;;;;;;;1.30;1.30;;;;;;;;;;5016932;28;20084;-24
2024/01/21 05:33:09;;;;;;;1.23;1.20;;;;;;;;;;5016871;28;20084;-23
2024/01/21 05:35:35;;;;;;;1.45;1.35;;;;;;;;;;5016890;28;20030;-24
2024/01/21 05:38:01;;;;;;;1.10;1.00;;;;;;;;;;5016588;28;20018;-24
2024/01/21 05:40:27;;;;;;;1.58;1.48;;;;;;;;;;5016808;28;20028;-24
2024/01/21 05:42:53;;;;;;;1.48;1.38;;;;;;;;;;5016593;28;20038;-24
2024/01/21 05:45:20;;;;;;;1.42;1.20;;;;;;;;;;5016633;28;20044;-24
2024/01/21 05:47:46;;;;;;;1.33;1.23;;;;;;;;;;5016886;28;20064;-25
2024/01/21 05:50:12;;;;;;;1.25;1.25;;;;;;;;;;5016846;28;20057;-23
2024/01/21 05:52:38;;;;;;;1.45;1.35;;;;;;;;;;5016477;28;20048;-23
2024/01/21 05:55:05;;;;;;;1.65;1.55;;;;;;;;;;5016274;28;20437;-24
2024/01/21 05:57:31;;;;;;;1.50;1.40;;;;;;;;;;5016481;28;20025;-24
2024/01/21 05:59:58;;;;;;;0.85;0.85;;;;;;;;;;5016114;28;20029;-24
2024/01/21 06:02:24;;;;;;;1.30;1.30;;;;;;;;;;5015993;28;20032;-23
2024/01/21 06:04:50;;;;;;;1.55;1.45;;;;;;;;;;5015996;28;20038;-24
2024/01/21 06:07:18;;;;;;;1.50;1.38;;;;;;;;;;5016009;28;20026;-25
2024/01/21 06:09:45;;;;;;;1.70;1.60;;;;;;;;;;5015956;28;20026;-23
2024/01/21 06:12:11;;;;;;;1.17;1.13;;;;;;;;;;5015769;28;20049;-24
2024/01/21 06:14:37;;;;;;;1.48;1.38;;;;;;;;;;5016190;28;20033;-24
2024/01/21 06:17:04;;;;;;;1.40;1.30;;;;;;;;;;5015883;28;20408;-25
2024/01/21 06:19:30;;;;;;;1.33;1.27;;;;;;;;;;5016074;28;20106;-27
2024/01/21 06:21:56;;;;;;;2.15;1.75;;;;;;;;;;5014765;28;20049;-25
2024/01/21 06:24:22;;;;;;;1.40;1.30;;;;;;;;;;5015764;28;20420;-23
2024/01/21 06:26:51;;;;;;;1.40;1.30;;;;;;;;;;5015695;28;20077;-24
2024/01/21 06:29:18;;;;;;;1.50;1.42;;;;;;;;;;5015660;28;20408;-23
2024/01/21 06:31:44;;;;;;;2.15;1.13;;;;;;;;;;5015800;28;20096;-23
2024/01/21 06:34:10;;;;;;;1.40;1.30;;;;;;;;;;5015428;28;20036;-23
2024/01/21 06:36:37;;;;;;;1.10;1.10;;;;;;;;;;5015550;28;20404;-24
2024/01/21 06:39:04;;;;;;;1.17;1.17;;;;;;;;;;5015482;28;20030;-24
2024/01/21 06:41:30;;;;;;;1.00;1.00;;;;;;;;;;5015393;28;20025;-24
2024/01/21 06:43:56;;;;;;;1.73;1.63;;;;;;;;;;5015632;28;20037;-25
2024/01/21 06:46:22;;;;;;;1.42;1.38;;;;;;;;;;5015709;28;20033;-23
2024/01/21 06:48:48;;;;;;;1.75;1.65;;;;;;;;;;5015648;28;20026;-23
2024/01/21 06:51:21;;;;;;;1.45;1.35;;;;;;;;;;5015505;28;20030;-24
2024/01/21 06:53:47;;;;;;;1.17;1.15;;;;;;;;;;5015489;28;20033;-23
2024/01/21 06:56:13;;;;;;;1.42;1.38;;;;;;;;;;5016015;28;20052;-25
2024/01/21 06:58:39;;;;;;;1.52;1.42;;;;;;;;;;5014629;28;20026;-24
2024/01/21 07:01:05;;;;;;;1.70;1.60;;;;;;;;;;5015180;28;20022;-23
2024/01/21 07:03:32;;;;;;;1.50;1.40;;;;;;;;;;5014848;28;20050;-25
2024/01/21 07:05:59;;;;;;;1.52;1.42;;;;;;;;;;5015065;28;20044;-25
2024/01/21 07:08:25;;;;;;;1.58;1.48;;;;;;;;;;5015013;28;20026;-26
2024/01/21 07:10:51;;;;;;;1.50;1.40;;;;;;;;;;5015265;28;20037;-26
2024/01/21 07:13:17;;;;;;;1.98;1.50;;;;;;;;;;5015180;28;20076;-24
2024/01/21 07:15:43;;;;;;;1.80;1.70;;;;;;;;;;5015244;28;20022;-24
2024/01/21 07:18:09;;;;;;;1.63;1.52;;;;;;;;;;5015504;28;20033;-23
2024/01/21 07:20:35;;;;;;;1.65;1.55;;;;;;;;;;5014949;28;20110;-23
2024/01/21 07:23:01;;;;;;;1.60;1.50;;;;;;;;;;5014825;28;20037;-23
2024/01/21 07:25:27;;;;;;;1.77;1.60;;;;;;;;;;5015944;28;20032;-25
2024/01/21 07:27:54;;;;;;;1.33;1.23;;;;;;;;;;5014869;28;20045;-25
2024/01/21 07:30:20;;;;;;;1.42;1.33;;;;;;;;;;5015042;28;20037;-24
2024/01/21 07:32:46;;;;;;;1.77;1.67;;;;;;;;;;5014752;28;20446;-24
2024/01/21 07:35:12;;;;;;;1.35;1.13;;;;;;;;;;5014773;28;20037;-23
2024/01/21 07:37:38;;;;;;;1.40;1.30;;;;;;;;;;5015062;28;20088;-23
2024/01/21 07:40:06;;;;;;;2.00;1.90;;;;;;;;;;5014747;28;20441;-23
2024/01/21 07:42:32;;;;;;;1.70;1.60;;;;;;;;;;5014925;28;20026;-24
2024/01/21 07:44:58;;;;;;;1.40;1.30;;;;;;;;;;5015249;28;20022;-24
2024/01/21 07:47:25;;;;;;;1.48;1.42;;;;;;;;;;5015696;28;20392;-24
2024/01/21 07:49:51;;;;;;;1.80;1.70;;;;;;;;;;5014657;28;20029;-23
2024/01/21 07:52:17;;;;;;;1.60;1.50;;;;;;;;;;5014681;28;20037;-23
2024/01/21 07:54:44;;;;;;;1.38;1.30;;;;;;;;;;5015131;28;20061;-23
2024/01/21 07:57:10;;;;;;;1.75;1.65;;;;;;;;;;5014857;28;20025;-24
2024/01/21 07:59:36;;;;;;;1.50;1.38;;;;;;;;;;5014557;28;20022;-24
2024/01/21 08:02:04;;;;;;;1.83;1.73;;;;;;;;;;5014415;28;20053;-23
2024/01/21 08:04:30;;;;;;;1.42;1.33;;;;;;;;;;5014332;28;20046;-24
2024/01/21 08:06:56;;;;;;;1.63;1.52;;;;;;;;;;5014510;28;20556;-24
2024/01/21 08:09:22;;;;;;;1.83;1.73;;;;;;;;;;5014458;28;20034;-24
2024/01/21 08:11:48;;;;;;;1.70;1.60;;;;;;;;;;5017533;28;20109;-24
2024/01/21 08:14:15;;;;;;;1.52;1.45;;;;;;;;;;5018418;28;20057;-25
2024/01/21 08:16:41;;;;;;;1.50;1.40;;;;;;;;;;5018418;28;20096;-23
2024/01/21 08:19:07;;;;;;;1.70;1.60;;;;;;;;;;5018084;28;20026;-22
2024/01/21 08:21:34;;;;;;;1.50;1.40;;;;;;;;;;5017952;28;20046;-23
2024/01/21 08:24:00;;;;;;;1.48;1.38;;;;;;;;;;5017938;28;20025;-23
2024/01/21 08:26:26;;;;;;;1.30;1.20;;;;;;;;;;5017927;28;20084;-24
2024/01/21 08:28:52;;;;;;;1.65;1.55;;;;;;;;;;5018194;28;20360;-23
2024/01/21 08:31:18;;;;;;;1.52;1.45;;;;;;;;;;5017767;28;20102;-24
2024/01/21 08:33:44;;;;;;;1.80;1.70;;;;;;;;;;5017686;28;20032;-24
2024/01/21 08:36:11;;;;;;;1.45;1.35;;;;;;;;;;5018054;28;20022;-23
2024/01/21 08:38:38;;;;;;;1.70;1.60;;;;;;;;;;5017745;28;20021;-24
2024/01/21 08:41:04;;;;;;;1.80;1.70;;;;;;;;;;5017719;28;20463;-25
2024/01/21 08:43:31;;;;;;;1.73;1.63;;;;;;;;;;5017839;28;20403;-24
2024/01/21 08:45:57;;;;;;;1.50;1.40;;;;;;;;;;5017879;28;20025;-24
2024/01/21 08:48:23;;;;;;;2.05;1.95;;;;;;;;;;5017584;28;20122;-23
2024/01/21 08:50:49;;;;;;;1.30;1.20;;;;;;;;;;5018241;28;20026;-23
2024/01/21 08:53:15;;;;;;;1.48;1.38;;;;;;;;;;5017389;28;20155;-24
2024/01/21 08:55:42;;;;;;;1.38;1.30;;;;;;;;;;5017681;28;20323;-26
2024/01/21 08:58:08;;;;;;;1.42;1.33;;;;;;;;;;5017687;28;20389;-25
2024/01/21 09:00:34;;;;;;;1.65;1.55;;;;;;;;;;5016341;28;20033;-25
2024/01/21 09:03:00;;;;;;;1.48;1.38;;;;;;;;;;5017066;28;20034;-24
2024/01/21 09:05:28;;;;;;;1.90;1.80;;;;;;;;;;5017516;28;20037;-24
2024/01/21 09:07:54;;;;;;;1.30;1.30;;;;;;;;;;5017157;28;20092;-24
2024/01/21 09:10:21;;;;;;;1.88;1.77;;;;;;;;;;5017091;28;20026;-24
2024/01/21 09:12:47;;;;;;;1.70;1.60;;;;;;;;;;5017044;28;20038;-25
2024/01/21 09:15:13;;;;;;;2.83;1.60;;;;;;;;;;5017066;28;20485;-23
2024/01/21 09:17:41;;;;;;;1.63;1.52;;;;;;;;;;5016935;28;20083;-24
2024/01/21 09:20:07;;;;;;;1.70;1.60;;;;;;;;;;5016928;28;20101;-24
2024/01/21 09:22:33;;;;;;;2.55;1.40;;;;;;;;;;5016427;28;20453;-24
2024/01/21 09:25:00;;;;;;;1.60;1.50;;;;;;;;;;5016895;28;20030;-24
2024/01/21 09:27:26;;;;;;;1.60;1.50;;;;;;;;;;5017085;28;20033;-24
2024/01/21 09:29:52;;;;;;;1.60;1.50;;;;;;;;;;5017057;28;20426;-23
2024/01/21 09:32:18;;;;;;;1.75;1.60;;;;;;;;;;5016595;28;20025;-24
2024/01/21 09:34:45;;;;;;;1.75;1.65;;;;;;;;;;5016945;28;20457;-24
2024/01/21 09:37:11;;;;;;;1.75;1.65;;;;;;;;;;5016925;28;20121;-25
2024/01/21 09:39:37;;;;;;;1.80;1.70;;;;;;;;;;5016842;28;20369;-25
2024/01/21 09:42:07;;;;;;;1.80;1.70;;;;;;;;;;5016476;28;20034;-26
2024/01/21 09:44:33;;;;;;;1.90;1.70;;;;;;;;;;5017064;28;20045;-23
2024/01/21 09:47:00;;;;;;;1.70;1.60;;;;;;;;;;5016741;28;20104;-24
2024/01/21 09:49:27;;;;;;;1.48;1.38;;;;;;;;;;5016403;28;20041;-24
2024/01/21 09:51:53;;;;;;;1.73;1.63;;;;;;;;;;5016451;28;20022;-23
2024/01/21 09:54:20;;;;;;;3.72;2.83;;;;;;;;;;5016314;28;20021;-23
2024/01/21 09:56:46;;;;;;;1.67;1.58;;;;;;;;;;5016510;28;20014;-23
2024/01/21 09:59:13;;;;;;;1.92;1.83;;;;;;;;;;5016241;28;20476;-24
2024/01/21 10:01:40;;;;;;;1.80;1.70;;;;;;;;;;5016108;28;20535;-23
2024/01/21 10:04:10;;;;;;;1.60;1.50;;;;;;;;;;5015835;28;20046;-25
2024/01/21 10:06:36;;;;;;;1.65;1.55;;;;;;;;;;5016029;28;20053;-23
2024/01/21 10:09:12;;;;;;;1.75;1.65;;;;;;;;;;5016334;28;20455;-24
2024/01/21 10:11:39;;;;;;;1.60;1.50;;;;;;;;;;5015854;28;20057;-24
2024/01/21 10:14:05;;;;;;;1.70;1.60;;;;;;;;;;5015924;28;20026;-23
2024/01/21 10:16:31;;;;;;;1.60;1.50;;;;;;;;;;5016148;28;20113;-24
2024/01/21 10:18:57;;;;;;;2.10;1.80;;;;;;;;;;5015820;28;20033;-23
2024/01/21 10:21:24;;;;;;;1.83;1.73;;;;;;;;;;5016060;28;20041;-23
2024/01/21 10:23:50;;;;;;;1.40;1.30;;;;;;;;;;5016229;28;20022;-25
2024/01/21 10:26:16;;;;;;;1.70;1.60;;;;;;;;;;5015726;28;20026;-24
2024/01/21 10:28:42;;;;;;;1.92;1.70;;;;;;;;;;5015700;28;20053;-23
2024/01/21 10:31:08;;;;;;;1.38;1.27;;;;;;;;;;5015897;28;20326;-24
2024/01/21 10:33:35;;;;;;;1.40;1.30;;;;;;;;;;5015017;28;20100;-24
2024/01/21 10:36:02;;;;;;;1.60;1.50;;;;;;;;;;5016046;28;20026;-24
2024/01/21 10:38:35;;;;;;;1.60;1.50;;;;;;;;;;5015804;28;20338;-23
2024/01/21 10:41:01;;;;;;;1.50;1.40;;;;;;;;;;5015825;28;20481;-25
2024/01/21 10:43:28;;;;;;;1.60;1.50;;;;;;;;;;5015386;28;20095;-23
2024/01/21 10:45:55;;;;;;;1.50;1.40;;;;;;;;;;5015442;28;20461;-25
2024/01/21 10:48:22;;;;;;;2.00;1.88;;;;;;;;;;5015342;28;20026;-23
2024/01/21 10:50:51;;;;;;;1.42;1.33;;;;;;;;;;5015289;28;20331;-23
2024/01/21 10:53:17;;;;;;;2.00;1.70;;;;;;;;;;5015205;28;20457;-23
2024/01/21 10:55:45;;;;;;;1.55;1.45;;;;;;;;;;5015202;28;20045;-24
2024/01/21 10:58:12;;;;;;;1.60;1.50;;;;;;;;;;5015991;28;20160;-23
2024/01/21 11:00:38;;;;;;;1.70;1.60;;;;;;;;;;5015175;28;20026;-24
2024/01/21 11:03:24;;;;;;;1.35;1.25;;;;;;;;;;5015131;28;20360;-23
2024/01/21 11:05:54;;;;;;;1.88;1.77;;;;;;;;;;5015609;28;20349;-25
2024/01/21 11:08:23;;;;;;;1.90;1.80;;;;;;;;;;5015063;28;20037;-23
2024/01/21 11:10:52;;;;;;;1.80;1.70;;;;;;;;;;5014916;28;20041;-23
2024/01/21 11:13:37;;;;;;;1.58;1.48;;;;;;;;;;5014915;28;20111;-24
2024/01/21 11:16:06;;;;;;;1.70;1.60;;;;;;;;;;5015011;28;20029;-24
2024/01/21 11:18:32;;;;;;;2.35;2.25;;;;;;;;;;5014875;28;20022;-23
2024/01/21 11:21:01;;;;;;;1.73;1.63;;;;;;;;;;5014952;28;20069;-23
2024/01/21 11:23:28;;;;;;;1.85;1.75;;;;;;;;;;5015099;28;20365;-25
2024/01/21 11:25:54;;;;;;;1.38;1.27;;;;;;;;;;5014825;28;20113;-24
2024/01/21 11:28:26;;;;;;;1.50;1.40;;;;;;;;;;5014869;28;20464;-26
2024/01/21 11:30:59;;;;;;;1.67;1.58;;;;;;;;;;5014790;28;20342;-25
2024/01/21 11:33:25;;;;;;;2.28;2.08;;;;;;;;;;5015042;28;20033;-23
2024/01/21 11:35:53;;;;;;;1.52;1.42;;;;;;;;;;5015050;28;20014;-25
2024/01/21 11:38:19;;;;;;;1.70;1.60;;;;;;;;;;5015044;28;20041;-24
2024/01/21 11:40:45;;;;;;;1.67;1.58;;;;;;;;;;5014769;28;20026;-24
2024/01/21 11:43:12;;;;;;;1.70;1.60;;;;;;;;;;5014920;28;20358;-23
2024/01/21 11:45:39;;;;;;;1.50;1.40;;;;;;;;;;5016513;28;20026;-25
2024/01/21 11:48:10;;;;;;;1.80;1.70;;;;;;;;;;5018680;28;20044;-25
2024/01/21 11:50:36;;;;;;;1.80;1.70;;;;;;;;;;5019428;28;20385;-24
2024/01/21 11:53:02;;;;;;;1.58;1.48;;;;;;;;;;5018831;28;20026;-23
2024/01/21 11:55:28;;;;;;;1.70;1.60;;;;;;;;;;5018797;28;20084;-23
2024/01/21 11:57:54;;;;;;;1.60;1.50;;;;;;;;;;5018783;28;20026;-23
2024/01/21 12:00:21;;;;;;;1.63;1.52;;;;;;;;;;5018744;28;20109;-23
2024/01/21 12:02:47;;;;;;;1.65;1.52;;;;;;;;;;5018359;28;20029;-24
2024/01/21 12:05:18;;;;;;;1.92;1.83;;;;;;;;;;5018226;28;20050;-23
2024/01/21 12:07:44;;;;;;;1.70;1.60;;;;;;;;;;5018567;28;20025;-25
2024/01/21 12:10:10;;;;;;;1.80;1.70;;;;;;;;;;5018231;28;20026;-24
2024/01/21 12:12:37;;;;;;;1.60;1.50;;;;;;;;;;5018431;28;20033;-23
2024/01/21 12:15:03;;;;;;;1.60;1.50;;;;;;;;;;5018224;28;20049;-24
2024/01/21 12:17:29;;;;;;;1.75;1.65;;;;;;;;;;5018129;28;20096;-23
2024/01/21 12:19:55;;;;;;;1.75;1.65;;;;;;;;;;5018369;28;20053;-24
2024/01/21 12:22:41;;;;;;;1.75;1.65;;;;;;;;;;5018565;28;20213;-26
2024/01/21 12:25:11;;;;;;;1.77;1.67;;;;;;;;;;5018018;28;20030;-24
2024/01/21 12:27:41;;;;;;;1.77;1.67;;;;;;;;;;5018222;28;20026;-23
2024/01/21 12:30:13;;;;;;;2.10;1.90;;;;;;;;;;5018403;28;20088;-26
2024/01/21 12:32:44;;;;;;;2.10;2.00;;;;;;;;;;5017970;28;20022;-23
2024/01/21 12:35:10;;;;;;;1.90;1.80;;;;;;;;;;5018058;28;20033;-25
2024/01/21 12:37:37;;;;;;;1.85;1.75;;;;;;;;;;5017782;28;20029;-24
2024/01/21 12:40:03;;;;;;;1.83;1.73;;;;;;;;;;5017787;28;20022;-23
2024/01/21 12:42:29;;;;;;;1.70;1.60;;;;;;;;;;5017564;28;20084;-24
2024/01/21 12:44:56;;;;;;;1.30;1.23;;;;;;;;;;5017927;28;20030;-25
2024/01/21 12:47:22;;;;;;;1.55;1.45;;;;;;;;;;5017873;28;20097;-26
2024/01/21 12:49:48;;;;;;;2.03;1.92;;;;;;;;;;5017558;28;20034;-24
2024/01/21 12:52:14;;;;;;;1.65;1.55;;;;;;;;;;5017401;28;20100;-23
2024/01/21 12:54:40;;;;;;;1.63;1.52;;;;;;;;;;5017766;28;20454;-23
2024/01/21 12:57:06;;;;;;;1.80;1.70;;;;;;;;;;5016639;28;20041;-24
2024/01/21 12:59:32;;;;;;;1.60;1.50;;;;;;;;;;5017654;28;20026;-26
2024/01/21 13:01:59;;;;;;;1.50;1.40;;;;;;;;;;5018257;28;20030;-24
2024/01/21 13:04:25;;;;;;;2.03;1.85;;;;;;;;;;5017146;28;20575;-25
2024/01/21 13:06:51;;;;;;;1.60;1.50;;;;;;;;;;5017190;28;20484;-24
2024/01/21 13:09:17;;;;;;;1.60;1.50;;;;;;;;;;5017195;28;20030;-24
2024/01/21 13:11:44;;;;;;;1.65;1.55;;;;;;;;;;5017327;28;20030;-24
2024/01/21 13:14:10;;;;;;;1.58;1.48;;;;;;;;;;5017016;28;20445;-24
2024/01/21 13:16:36;;;;;;;1.40;1.30;;;;;;;;;;5017049;28;20036;-24
2024/01/21 13:19:02;;;;;;;1.50;1.40;;;;;;;;;;5017288;28;20334;-24
2024/01/21 13:21:28;;;;;;;2.88;2.00;;;;;;;;;;5016938;28;20034;-25
2024/01/21 13:23:54;;;;;;;1.23;1.17;;;;;;;;;;5016864;28;20407;-24
2024/01/21 13:26:20;;;;;;;1.52;1.42;;;;;;;;;;5016922;28;20030;-24
2024/01/21 13:31:32;;;;;;;1.92;1.83;;;;;;;;;;5016725;28;20060;-24
2024/01/21 13:33:59;;;;;;;1.70;1.60;;;;;;;;;;5016981;28;20022;-24
2024/01/21 13:36:26;;;;;;;1.80;1.70;;;;;;;;;;5016911;28;20357;-24
2024/01/21 13:38:52;;;;;;;1.50;1.40;;;;;;;;;;5016663;28;20049;-23
2024/01/21 13:41:18;;;;;;;1.85;1.75;;;;;;;;;;5016807;28;20041;-24
2024/01/21 13:43:45;;;;;;;1.60;1.50;;;;;;;;;;5016529;28;20104;-23
2024/01/21 13:46:11;;;;;;;1.60;1.50;;;;;;;;;;5017027;28;20450;-24
2024/01/21 13:48:37;;;;;;;1.80;1.70;;;;;;;;;;5015505;28;20045;-24
2024/01/21 13:51:05;;;;;;;1.98;1.88;;;;;;;;;;5016299;28;20049;-24
2024/01/21 13:53:32;;;;;;;2.00;1.90;;;;;;;;;;5016548;28;20076;-25
2024/01/21 13:55:58;;;;;;;1.80;1.70;;;;;;;;;;5016575;28;20109;-26
2024/01/21 13:58:24;;;;;;;1.48;1.38;;;;;;;;;;5016242;28;20025;-24
2024/01/21 14:00:50;;;;;;;1.42;1.33;;;;;;;;;;5016490;28;20095;-24
2024/01/21 14:03:17;;;;;;;1.48;1.38;;;;;;;;;;5016334;28;20351;-24
2024/01/21 14:05:43;;;;;;;2.00;1.90;;;;;;;;;;5016440;28;20029;-24
2024/01/21 14:08:10;;;;;;;1.60;1.50;;;;;;;;;;5015930;28;20029;-24
2024/01/21 14:10:36;;;;;;;1.70;1.60;;;;;;;;;;5016258;28;20026;-25
2024/01/21 14:13:02;;;;;;;1.90;1.80;;;;;;;;;;5015987;28;20026;-24
2024/01/21 14:15:30;;;;;;;1.90;1.80;;;;;;;;;;5015800;28;20042;-23
2024/01/21 14:17:56;;;;;;;1.70;1.60;;;;;;;;;;5016194;28;20030;-23
2024/01/21 14:20:22;;;;;;;1.48;1.38;;;;;;;;;;5015898;28;20052;-23
2024/01/21 14:22:49;;;;;;;1.50;1.40;;;;;;;;;;5016023;28;20429;-23
2024/01/21 14:25:27;;;;;;;1.67;1.58;;;;;;;;;;5016076;28;20099;-23
2024/01/21 14:27:54;;;;;;;1.95;1.70;;;;;;;;;;5016019;28;20040;-24
2024/01/21 14:30:47;;;;;;;1.42;1.35;;;;;;;;;;5015650;28;20022;-24
2024/01/21 14:33:13;;;;;;;2.42;2.22;;;;;;;;;;5014027;28;20045;-24
2024/01/21 14:35:42;;;;;;;1.70;1.60;;;;;;;;;;5015888;28;20349;-25
2024/01/21 14:38:10;;;;;;;1.92;1.83;;;;;;;;;;5016666;28;20349;-24
2024/01/21 14:40:36;;;;;;;1.58;1.48;;;;;;;;;;5015801;28;20388;-25
2024/01/21 14:43:03;;;;;;;1.40;1.30;;;;;;;;;;5016226;28;20456;-23